createdAt,value
2019-02-19T00:04:32.662Z,6.65
2019-02-19T00:09:38.070Z,6.54
2019-02-19T00:14:43.650Z,6.43
2019-02-19T00:19:50.747Z,6.34
2019-02-19T00:24:56.689Z,6.36
2019-02-19T00:30:01.927Z,6.41
2019-02-19T00:35:07.918Z,6.88
2019-02-19T00:40:14.132Z,6.79
2019-02-19T00:45:19.982Z,6.65
2019-02-19T00:50:25.905Z,6.65
2019-02-19T00:55:31.316Z,6.61
2019-02-19T01:00:36.536Z,6.57
2019-02-19T01:05:42.192Z,6.57
2019-02-19T01:10:47.945Z,6.35
2019-02-19T01:15:53.092Z,6.08
2019-02-19T01:20:58.240Z,5.97
2019-02-19T01:26:04.437Z,5.97
2019-02-19T01:31:09.915Z,5.93
2019-02-19T01:36:16.448Z,5.94
2019-02-19T01:41:21.758Z,5.89
2019-02-19T01:46:27.676Z,5.82
2019-02-19T01:51:33.789Z,5.67
2019-02-19T01:56:39.108Z,5.56
2019-02-19T02:01:44.334Z,5.45
2019-02-19T02:06:49.486Z,5.16
2019-02-19T02:11:54.656Z,5.27
2019-02-19T02:16:59.721Z,5.35
2019-02-19T02:22:05.248Z,5.27
2019-02-19T02:27:10.692Z,5.31
2019-02-19T02:32:15.786Z,5.20
2019-02-19T02:37:21.028Z,5.17
2019-02-19T02:42:26.346Z,5.15
2019-02-19T02:47:31.489Z,5.13
2019-02-19T02:52:36.797Z,5.26
2019-02-19T02:57:42.848Z,5.23
2019-02-19T03:02:48.417Z,4.99
2019-02-19T03:07:56.732Z,4.90
2019-02-19T03:13:02.155Z,4.80
2019-02-19T03:18:07.285Z,4.84
2019-02-19T03:23:13.169Z,4.80
2019-02-19T03:28:18.314Z,4.79
2019-02-19T03:33:23.299Z,4.68
2019-02-19T03:38:28.389Z,4.63
2019-02-19T03:43:34.886Z,4.44
2019-02-19T03:48:39.976Z,4.33
2019-02-19T03:53:45.875Z,4.22
2019-02-19T03:58:51.016Z,4.22
2019-02-19T04:03:56.428Z,4.27
2019-02-19T04:09:01.689Z,4.23
2019-02-19T04:14:07.788Z,4.13
2019-02-19T04:19:13.033Z,4.16
2019-02-19T04:24:18.321Z,4.25
2019-02-19T04:29:23.591Z,4.37
2019-02-19T04:34:28.864Z,4.22
2019-02-19T04:39:34.075Z,4.33
2019-02-19T04:44:39.287Z,4.37
2019-02-19T04:49:44.859Z,4.25
2019-02-19T04:54:50.412Z,4.25
2019-02-19T04:59:55.686Z,4.20
2019-02-19T05:05:02.195Z,4.18
2019-02-19T05:10:07.518Z,4.23
2019-02-19T05:15:12.691Z,4.25
2019-02-19T05:20:19.294Z,4.24
2019-02-19T05:25:24.785Z,4.41
2019-02-19T05:30:30.059Z,4.28
2019-02-19T05:35:35.796Z,4.26
2019-02-19T05:40:41.646Z,4.20
2019-02-19T05:45:46.844Z,4.12
2019-02-19T05:50:52.031Z,4.07
2019-02-19T05:55:57.219Z,4.06
2019-02-19T06:01:02.490Z,4.10
2019-02-19T06:06:07.765Z,4.14
2019-02-19T06:11:13.035Z,4.25
2019-02-19T06:16:18.333Z,4.26
2019-02-19T06:21:23.600Z,4.21
2019-02-19T06:26:28.785Z,4.20
2019-02-19T06:31:34.838Z,4.18
2019-02-19T06:36:40.302Z,4.14
2019-02-19T06:41:45.656Z,4.22
2019-02-19T06:46:50.933Z,4.25
2019-02-19T06:51:56.127Z,4.25
2019-02-19T06:57:01.421Z,4.26
2019-02-19T07:02:24.810Z,4.26
2019-02-19T07:07:29.989Z,4.46
2019-02-19T07:12:35.649Z,4.64
2019-02-19T07:17:41.085Z,4.79
2019-02-19T07:22:47.050Z,5.01
2019-02-19T07:27:52.451Z,5.00
2019-02-19T07:32:57.634Z,5.12
2019-02-19T07:38:02.929Z,5.23
2019-02-19T07:43:08.881Z,5.38
2019-02-19T07:48:15.534Z,5.35
2019-02-19T07:53:20.802Z,5.39
2019-02-19T07:58:26.803Z,5.58
2019-02-19T08:03:32.368Z,5.84
2019-02-19T08:08:38.211Z,5.86
2019-02-19T08:13:43.480Z,5.91
2019-02-19T08:18:48.745Z,5.99
2019-02-19T08:23:54.418Z,6.03
2019-02-19T08:29:13.097Z,6.08
2019-02-19T08:34:09.087Z,6.20
2019-02-19T08:39:14.695Z,6.27
2019-02-19T08:44:20.165Z,6.31
2019-02-19T08:49:26.191Z,6.34
2019-02-19T08:54:32.854Z,6.38
2019-02-19T08:59:38.503Z,6.40
2019-02-19T09:04:44.480Z,6.42
2019-02-19T09:09:49.756Z,6.44
2019-02-19T09:14:55.009Z,6.46
2019-02-19T09:25:05.512Z,6.49
2019-02-19T09:30:12.690Z,6.47
2019-02-19T09:35:20.661Z,6.58
2019-02-19T09:40:26.039Z,6.72
2019-02-19T09:45:31.423Z,6.85
2019-02-19T09:50:37.689Z,7.04
2019-02-19T09:55:44.014Z,7.26
2019-02-19T10:00:49.994Z,7.39
2019-02-19T10:05:55.249Z,7.47
2019-02-19T10:11:00.514Z,7.68
2019-02-19T10:16:06.258Z,7.75
2019-02-19T10:21:11.845Z,7.86
2019-02-19T10:26:17.772Z,7.82
2019-02-19T10:31:23.777Z,7.86
2019-02-19T10:36:29.079Z,7.77
2019-02-19T10:41:34.461Z,7.79
2019-02-19T10:46:39.734Z,7.78
2019-02-19T10:51:45.333Z,7.78
2019-02-19T10:56:50.989Z,7.79
2019-02-19T11:01:56.263Z,7.82
2019-02-19T11:07:02.573Z,7.67
2019-02-19T11:12:07.848Z,7.67
2019-02-19T11:17:13.993Z,7.68
2019-02-19T11:22:19.272Z,7.58
2019-02-19T11:27:25.206Z,7.48
2019-02-19T11:32:30.906Z,7.44
2019-02-19T11:37:37.414Z,7.43
2019-02-19T11:42:42.861Z,7.40
2019-02-19T11:47:48.485Z,7.40
2019-02-19T11:52:54.759Z,7.36
2019-02-19T11:58:00.319Z,7.26
2019-02-19T12:03:05.591Z,7.16
2019-02-19T12:08:10.866Z,7.09
2019-02-19T12:13:16.553Z,7.09
2019-02-19T12:18:22.078Z,7.05
2019-02-19T12:23:27.831Z,7.03
2019-02-19T12:28:33.242Z,7.08
2019-02-19T12:33:38.850Z,7.26
2019-02-19T12:38:44.170Z,7.49
2019-02-19T12:43:51.019Z,7.62
2019-02-19T12:48:56.365Z,7.61
2019-02-19T12:54:01.655Z,7.65
2019-02-19T12:59:06.926Z,7.71
2019-02-19T13:04:12.182Z,7.77
2019-02-19T13:09:18.657Z,7.78
2019-02-19T13:14:24.249Z,7.73
2019-02-19T13:19:29.509Z,7.74
2019-02-19T13:24:35.064Z,7.77
2019-02-19T13:29:41.673Z,7.85
2019-02-19T13:34:46.944Z,7.77
2019-02-19T13:39:52.251Z,7.86
2019-02-19T13:44:57.803Z,8.03
2019-02-19T13:50:03.451Z,8.20
2019-02-19T13:55:18.529Z,8.09
2019-02-19T14:00:24.670Z,8.25
2019-02-19T14:05:29.943Z,8.32
2019-02-19T14:10:36.307Z,8.38
2019-02-19T14:16:00.750Z,8.33
2019-02-19T14:21:37.197Z,8.61
2019-02-19T14:27:00.706Z,8.52
2019-02-19T14:32:44.134Z,8.27
2019-02-19T14:38:11.744Z,8.34
2019-02-19T14:43:35.987Z,9.23
2019-02-19T14:48:59.641Z,9.65
2019-02-19T14:54:24.962Z,9.80
2019-02-19T14:59:48.272Z,9.80
2019-02-19T15:05:12.479Z,10.02
2019-02-19T15:10:33.235Z,9.57
2019-02-19T15:15:57.490Z,9.63
2019-02-19T15:21:12.128Z,9.15
2019-02-19T15:26:43.508Z,8.79
2019-02-19T15:32:13.805Z,8.48
2019-02-19T15:37:36.969Z,8.25
2019-02-19T15:43:01.219Z,8.11
2019-02-19T15:48:24.415Z,7.94
2019-02-19T15:53:52.000Z,7.79
2019-02-19T15:59:12.096Z,7.87
2019-02-19T16:04:36.191Z,7.95
2019-02-19T16:10:06.708Z,7.63
2019-02-19T16:15:31.046Z,7.65
2019-02-19T16:20:55.132Z,7.62
2019-02-19T16:26:23.885Z,7.63
2019-02-19T16:32:00.592Z,7.44
2019-02-19T16:37:31.217Z,7.16
2019-02-19T16:43:01.463Z,6.95
2019-02-19T16:48:35.461Z,6.52
2019-02-19T16:53:51.300Z,6.66
2019-02-19T16:59:08.022Z,6.39
2019-02-19T17:04:38.466Z,6.23
2019-02-19T17:09:54.233Z,6.11
2019-02-19T17:15:27.450Z,5.75
2019-02-19T17:20:50.743Z,5.58
2019-02-19T17:26:08.073Z,5.48
2019-02-19T17:31:32.603Z,5.54
2019-02-19T17:36:43.667Z,5.40
2019-02-19T17:41:54.360Z,5.27
2019-02-19T17:47:18.529Z,5.13
2019-02-19T17:52:41.694Z,5.05
2019-02-19T17:57:56.853Z,5.09
2019-02-19T18:03:14.150Z,4.95
2019-02-19T18:08:36.709Z,5.08
2019-02-19T18:13:58.874Z,5.02
2019-02-19T18:19:04.420Z,5.05
2019-02-19T18:24:09.812Z,5.01
2019-02-19T18:29:15.082Z,5.06
2019-02-19T18:34:20.265Z,5.01
2019-02-19T18:39:26.511Z,4.88
2019-02-19T18:44:32.056Z,4.78
2019-02-19T18:49:37.453Z,4.78
2019-02-19T18:54:42.738Z,4.75
2019-02-19T18:59:49.089Z,4.69
2019-02-19T19:04:54.356Z,4.72
2019-02-19T19:09:59.964Z,4.65
2019-02-19T19:15:07.007Z,4.62
2019-02-19T19:20:13.816Z,4.56
2019-02-19T19:25:19.116Z,4.45
2019-02-19T19:30:24.376Z,4.31
2019-02-19T19:35:29.957Z,4.16
2019-02-19T19:40:38.250Z,4.02
2019-02-19T19:45:43.675Z,4.09
2019-02-19T19:50:48.865Z,4.01
2019-02-19T19:55:54.592Z,3.95
2019-02-19T20:00:59.792Z,3.91
2019-02-19T20:06:04.986Z,3.85
2019-02-19T20:11:10.237Z,3.77
2019-02-19T20:16:15.863Z,3.72
2019-02-19T20:21:26.811Z,3.65
2019-02-19T20:26:28.371Z,3.61
2019-02-19T20:31:33.889Z,3.62
2019-02-19T20:36:39.096Z,3.99
2019-02-19T20:41:45.724Z,4.45
2019-02-19T20:46:51.286Z,4.70
2019-02-19T20:51:56.497Z,4.91
2019-02-19T20:57:02.470Z,4.95
2019-02-19T21:02:07.703Z,5.08
2019-02-19T21:07:12.970Z,5.09
2019-02-19T21:12:19.296Z,5.01
2019-02-19T21:17:24.486Z,5.00
2019-02-19T21:22:29.666Z,5.14
2019-02-19T21:27:34.940Z,5.05
2019-02-19T21:32:40.522Z,4.98
2019-02-19T21:37:46.722Z,4.95
2019-02-19T21:42:51.916Z,4.71
2019-02-19T21:47:57.184Z,4.62
2019-02-19T21:53:03.588Z,4.34
2019-02-19T21:58:08.777Z,4.05
2019-02-19T22:03:14.419Z,3.80
2019-02-19T22:08:19.747Z,3.66
2019-02-19T22:13:24.941Z,3.59
2019-02-19T22:18:31.249Z,3.53
2019-02-19T22:23:38.337Z,3.42
2019-02-19T22:28:44.952Z,3.32
2019-02-19T22:33:50.146Z,3.34
2019-02-19T22:38:55.672Z,3.27
2019-02-19T22:44:01.734Z,3.18
2019-02-19T22:49:06.973Z,3.09
2019-02-19T22:54:17.946Z,3.07
2019-02-19T22:59:23.506Z,2.99
2019-02-19T23:04:28.737Z,2.87
2019-02-19T23:09:33.966Z,2.86
2019-02-19T23:14:40.010Z,2.89
2019-02-19T23:19:45.268Z,2.96
2019-02-19T23:24:51.189Z,2.92
2019-02-19T23:29:56.399Z,2.85
2019-02-19T23:35:29.678Z,2.82
2019-02-19T23:40:35.133Z,2.80
2019-02-19T23:45:40.871Z,2.70
2019-02-19T23:50:46.124Z,2.59
2019-02-19T23:55:51.308Z,2.53
